Flight ASXVIP9

  • Submitted By: Krzysztof H. Blaszkow
  • Departure Airport: Gdansk im. Lecha Walesy (EPGD)
  • Arrival Airport: Katowice Pyrzowice (EPKT)
  • Aircraft: BE58 (SP-MVL)
  • Flight Time: 02.04.05
  • Date Submitted: 09/09/2017
  • Route: IRLUN N133 NEGUV M66 KUKAM
  • Status: Accepted
Flight Details
Gross Revenue:
(5 load / € 700.00 per unit
€ 3,500.00
Fuel Cost:
(107.955 fuel used @ 0.45 / unit)
€ 48.58

Additional Log Information:

View Log

[16:10] - Carenado BARON B58 METAL BLUE
[16:10] - Flight ASXVIP9 is ready to depart EPGD with a final destination of EPKT.
[16:10] - Parking Brake Applied
[16:10] - Navigation Lights ON
[16:10] - Beacon Light ON
[16:10] - Recognition Lights ON
[16:10] - Wing Lights ON
[16:10] - Logo Lights ON
[16:10] - Boarding
[16:10] - ADF1 - 284.0
[16:10] - ADF2 - 240.0
[16:10] - NAV1 - 116.10
[16:10] - NAV2 - 116.10
[16:10] - COM1 - 122.80
[16:10] - COM2 - 123.45
[16:10] - Transponder - 7000
[16:11] - Transponder - 2000
[16:14] - Engine 1 Started
[16:16] - Engine 2 Started
[16:17] - Taxi Lights ON 0AGL
[16:17] - Cabin Lights ON 0AGL
[16:17] - Cabin Lights OFF 0AGL
[16:17] - Instrument Lights ON 0AGL
[16:17] - Instrument Lights OFF 0AGL
[16:17] - Parking Brake Released
[16:17] - Pushing Back from the gate
[16:20] - Taxiing to Runway
[16:22] - Taxi Lights OFF 0AGL
[16:22] - Landing Lights ON 0AGL
[16:22] - Strobe Lights ON 0AGL
[16:22] - Flaps to position 1
[16:22] - Flaps to position 0
[16:23] - Taking Off with 5 passengers on board
[16:23] - Take off at 86kts, with a pitch of 6deg and 576lbs of fuel on board
[16:23] - Wind Heading 165 | Wind Speed 8kts | Temperature 19 deg C
[16:23] - METAR Departure: EPGD 091500Z 15008KT 130V190 9999 FEW030 19/14 Q1001

[16:24] - Climbing to TOC
[16:25] - Gear up at 1955AGL
[16:28] - AutoPilot Engaged at 6348AGL
[16:32] - Landing Lights OFF 8894AGL
[16:38] - TOC reached
[16:38] - Cruise started
[17:32] - NAV1 - 114.80
[17:50] - TOD reached
[17:50] - Descending to destination
[17:54] - Landing Lights ON 8957AGL
[17:59] - AutoPilot Disengaged at 5380AGL
[17:59] - Landing Shortly
[18:01] - AutoPilot Engaged at 2218AGL
[18:02] - NAV1 - 109.90
[18:03] - Gear down at 1621AGL
[18:03] - Flaps to position 1 at 2746ft and 124kts
[18:04] - AutoPilot Disengaged at 1781AGL
[18:07] - Landed at -122fpm. With 343lbs of fuel onboard and a pitch angle of 2deg.
[18:07] - Wind Heading 179 | Wind Speed 6kts | Temperature 22 deg C
[18:07] - METAR Arrival: EPKT 091630Z 18011KT 150V210 CAVOK 23/11 Q1003

[18:07] - Flaps to position 0
[18:08] - Taxiing to Gate
[18:09] - Instrument Lights ON 3AGL
[18:09] - Landing Lights OFF 3AGL
[18:09] - Taxi Lights ON 3AGL
[18:14] - Parking Brake Applied
[18:14] - Arrived safely at EPKT. We hope you enjoyed your flight!
[18:14] - Strobe Lights OFF 3AGL
[18:14] - Taxi Lights OFF 3AGL
[18:14] - Engine 1 Stopped
[18:14] - Engine 2 Stopped
[18:15] - Carenado BARON B58 METAL BLUE
[18:15] - MaxSim Rate: 1x
[18:15] - SiouxAcars ver: 1.0.1.2

Route Map